createdAt,value
2022-09-30T00:01:35.814Z,148.87
2022-09-30T00:04:04.711Z,182.63
2022-09-30T00:06:35.150Z,149.83
2022-09-30T00:09:04.053Z,162.07
2022-09-30T00:11:34.728Z,158.20
2022-09-30T00:14:04.395Z,166.30
2022-09-30T00:16:35.433Z,199.23
2022-09-30T00:19:05.480Z,197.53
2022-09-30T00:21:34.848Z,126.73
2022-09-30T00:24:04.100Z,199.77
2022-09-30T00:26:32.625Z,187.90
2022-09-30T00:29:01.844Z,182.27
2022-09-30T00:31:33.760Z,133.57
2022-09-30T00:34:08.935Z,177.83
2022-09-30T00:36:39.586Z,205.07
2022-09-30T00:39:09.820Z,169.10
2022-09-30T00:41:39.136Z,154.77
2022-09-30T00:44:57.914Z,142.87
2022-09-30T00:47:37.710Z,381.33
2022-09-30T00:50:14.648Z,290.37
2022-09-30T00:52:43.861Z,237.20
2022-09-30T00:55:22.002Z,213.93
2022-09-30T00:57:50.066Z,231.90
2022-09-30T01:00:18.227Z,209.40
2022-09-30T01:02:50.525Z,162.87
2022-09-30T01:05:18.815Z,184.23
2022-09-30T01:07:47.342Z,155.37
2022-09-30T01:10:15.357Z,150.77
2022-09-30T01:12:43.497Z,152.67
2022-09-30T01:15:11.943Z,125.23
2022-09-30T01:17:51.161Z,156.97
2022-09-30T01:20:50.372Z,185.73
2022-09-30T01:23:38.438Z,289.07
2022-09-30T01:26:35.986Z,283.03
2022-09-30T01:29:35.919Z,303.93
2022-09-30T01:32:16.815Z,320.83
2022-09-30T01:34:55.258Z,239.60
2022-09-30T01:37:32.867Z,205.23
2022-09-30T01:40:06.941Z,201.80
2022-09-30T01:42:43.105Z,188.20
2022-09-30T01:45:17.645Z,186.53
2022-09-30T01:47:51.076Z,212.77
2022-09-30T01:50:25.188Z,189.47
2022-09-30T01:53:04.596Z,176.17
2022-09-30T01:55:36.902Z,194.43
2022-09-30T01:58:12.471Z,190.00
2022-09-30T02:00:45.171Z,209.50
2022-09-30T02:03:19.140Z,172.73
2022-09-30T02:05:54.425Z,173.83
2022-09-30T02:08:29.770Z,154.27
2022-09-30T02:11:01.004Z,183.93
2022-09-30T02:13:35.159Z,156.23
2022-09-30T02:16:12.936Z,207.93
2022-09-30T02:18:46.012Z,225.23
2022-09-30T02:21:19.526Z,181.13
2022-09-30T02:23:50.432Z,184.07
2022-09-30T02:26:23.262Z,169.87
2022-09-30T02:28:55.649Z,152.03
2022-09-30T02:31:27.371Z,175.70
2022-09-30T02:34:02.998Z,170.23
2022-09-30T02:36:35.197Z,199.57
2022-09-30T02:39:08.135Z,197.27
2022-09-30T02:41:41.936Z,174.63
2022-09-30T02:44:10.647Z,214.50
2022-09-30T02:46:46.351Z,165.23
2022-09-30T02:49:21.758Z,189.50
2022-09-30T02:52:07.281Z,200.00
2022-09-30T02:54:40.542Z,243.67
2022-09-30T02:57:20.187Z,241.07
2022-09-30T02:59:52.160Z,286.80
2022-09-30T03:02:21.815Z,226.13
2022-09-30T03:04:51.872Z,206.23
2022-09-30T03:07:20.105Z,240.53
2022-09-30T03:09:48.489Z,208.93
2022-09-30T03:12:27.507Z,180.20
2022-09-30T03:15:09.988Z,231.07
2022-09-30T03:18:01.163Z,273.87
2022-09-30T03:20:40.226Z,383.57
2022-09-30T03:23:31.358Z,335.53
2022-09-30T03:26:12.245Z,433.67
2022-09-30T03:28:49.786Z,348.07
2022-09-30T03:31:31.285Z,336.17
2022-09-30T03:34:06.999Z,327.53
2022-09-30T03:36:42.415Z,275.63
2022-09-30T03:39:23.871Z,290.37
2022-09-30T03:41:59.312Z,383.40
2022-09-30T03:44:34.026Z,418.07
2022-09-30T03:47:08.585Z,372.10
2022-09-30T03:49:41.191Z,492.20
2022-09-30T03:52:13.673Z,268.47
2022-09-30T03:54:50.720Z,284.00
2022-09-30T03:57:18.805Z,301.23
2022-09-30T03:59:47.263Z,245.03
2022-09-30T04:02:15.389Z,234.83
2022-09-30T04:04:43.853Z,213.97
2022-09-30T04:07:13.643Z,293.93
2022-09-30T04:09:42.078Z,251.20
2022-09-30T04:12:10.451Z,280.80
2022-09-30T04:14:38.601Z,280.13
2022-09-30T04:17:07.160Z,301.30
2022-09-30T04:19:38.149Z,380.13
2022-09-30T04:22:06.791Z,315.73
2022-09-30T04:24:36.652Z,336.23
2022-09-30T04:27:05.097Z,310.53
2022-09-30T04:29:33.163Z,330.90
2022-09-30T04:32:01.537Z,286.07
2022-09-30T04:34:29.533Z,270.00
2022-09-30T04:36:57.507Z,294.83
2022-09-30T04:39:25.582Z,277.50
2022-09-30T04:41:55.063Z,319.10
2022-09-30T04:44:23.398Z,360.80
2022-09-30T04:46:51.751Z,331.73
2022-09-30T04:49:20.296Z,320.20
2022-09-30T04:51:48.564Z,370.67
2022-09-30T04:54:16.630Z,333.07
2022-09-30T04:56:44.646Z,295.53
2022-09-30T04:59:14.198Z,283.17
2022-09-30T05:01:44.435Z,349.00
2022-09-30T05:04:13.152Z,420.83
2022-09-30T05:06:41.689Z,305.30
2022-09-30T05:09:09.968Z,281.93
2022-09-30T05:11:42.595Z,178.83
2022-09-30T05:14:11.637Z,214.17
2022-09-30T05:16:41.210Z,232.67
2022-09-30T05:19:09.265Z,247.37
2022-09-30T05:21:37.485Z,300.53
2022-09-30T05:24:05.612Z,265.80
2022-09-30T05:26:33.705Z,303.60
2022-09-30T05:29:01.783Z,273.57
2022-09-30T05:31:29.933Z,231.33
2022-09-30T05:33:59.374Z,231.23
2022-09-30T05:36:27.573Z,227.00
2022-09-30T05:38:55.795Z,297.57
2022-09-30T05:41:24.482Z,296.23
2022-09-30T05:43:53.149Z,289.53
2022-09-30T05:46:21.719Z,213.53
2022-09-30T05:48:49.794Z,309.70
2022-09-30T05:51:19.229Z,404.97
2022-09-30T05:53:47.313Z,324.57
2022-09-30T05:56:15.378Z,332.33
2022-09-30T05:58:43.497Z,227.87
2022-09-30T06:01:14.541Z,250.87
2022-09-30T06:03:43.270Z,214.57
2022-09-30T06:06:11.610Z,169.33
2022-09-30T06:08:41.568Z,213.07
2022-09-30T06:11:12.748Z,202.30
2022-09-30T06:13:41.869Z,277.67
2022-09-30T06:16:11.724Z,235.93
2022-09-30T06:18:41.224Z,292.07
2022-09-30T06:21:12.089Z,275.57
2022-09-30T06:23:41.902Z,274.90
2022-09-30T06:26:12.311Z,277.37
2022-09-30T06:28:41.258Z,247.20
2022-09-30T06:31:09.623Z,289.27
2022-09-30T06:33:37.868Z,262.47
2022-09-30T06:36:07.173Z,263.47
2022-09-30T06:38:37.146Z,289.73
2022-09-30T06:41:07.886Z,310.73
2022-09-30T06:43:43.879Z,338.87
2022-09-30T06:46:29.834Z,645.97
2022-09-30T06:49:13.509Z,385.07
2022-09-30T06:51:42.082Z,348.43
2022-09-30T06:54:10.752Z,265.83
2022-09-30T06:56:40.444Z,211.93
2022-09-30T06:59:08.594Z,234.50
2022-09-30T07:01:36.806Z,224.90
2022-09-30T07:04:09.712Z,195.57
2022-09-30T07:06:38.917Z,161.70
2022-09-30T07:09:07.771Z,202.37
2022-09-30T07:11:36.631Z,268.43
2022-09-30T07:14:06.754Z,528.53
2022-09-30T07:16:35.255Z,270.83
2022-09-30T07:19:04.791Z,336.53
2022-09-30T07:21:32.872Z,375.33
2022-09-30T07:24:01.256Z,494.73
2022-09-30T07:26:30.920Z,543.47
2022-09-30T07:29:00.022Z,789.63
2022-09-30T07:31:35.015Z,890.63
2022-09-30T07:34:06.997Z,944.83
2022-09-30T07:36:37.585Z,880.70
2022-09-30T07:39:08.199Z,870.43
2022-09-30T07:41:38.896Z,886.20
2022-09-30T07:44:13.220Z,946.83
2022-09-30T07:46:44.574Z,967.60
2022-09-30T07:49:15.983Z,968.50
2022-09-30T07:51:45.526Z,971.27
2022-09-30T07:54:17.013Z,999.90
2022-09-30T07:57:08.711Z,974.43
2022-09-30T07:59:36.829Z,965.90
2022-09-30T08:02:07.625Z,999.90
2022-09-30T08:04:39.122Z,988.97
2022-09-30T08:07:10.463Z,995.57
2022-09-30T08:09:38.645Z,952.63
2022-09-30T08:12:07.007Z,949.43
2022-09-30T08:14:35.215Z,958.57
2022-09-30T08:17:03.448Z,871.73
2022-09-30T08:19:34.147Z,889.90
2022-09-30T08:24:36.165Z,999.90
2022-09-30T08:27:04.557Z,999.90
2022-09-30T08:32:20.823Z,999.90
2022-09-30T08:34:50.670Z,999.90
2022-09-30T08:37:18.755Z,999.90
2022-09-30T08:39:48.348Z,999.90
2022-09-30T08:42:37.380Z,999.90
2022-09-30T08:45:17.127Z,999.90
2022-09-30T08:47:53.171Z,999.90
2022-09-30T08:50:30.253Z,999.90
2022-09-30T08:53:02.929Z,999.90
2022-09-30T08:55:36.610Z,999.90
2022-09-30T08:58:07.249Z,999.90
2022-09-30T09:00:36.674Z,999.90
2022-09-30T09:03:05.070Z,999.90
2022-09-30T09:05:49.960Z,999.90
2022-09-30T09:08:30.267Z,999.90
2022-09-30T09:11:09.008Z,999.90
2022-09-30T09:13:47.659Z,999.90
2022-09-30T09:16:25.929Z,999.90
2022-09-30T09:19:04.689Z,999.90
2022-09-30T09:21:48.540Z,999.90
2022-09-30T09:24:20.207Z,999.90
2022-09-30T09:26:49.288Z,999.90
2022-09-30T09:29:31.535Z,999.90
2022-09-30T09:32:01.984Z,999.90
2022-09-30T09:34:31.712Z,999.90
2022-09-30T09:37:12.668Z,999.90
2022-09-30T09:40:04.501Z,999.90
2022-09-30T09:42:50.832Z,999.90
2022-09-30T09:45:27.994Z,999.90
2022-09-30T09:47:57.210Z,999.90
2022-09-30T09:50:35.920Z,999.90
2022-09-30T09:53:33.793Z,999.90
2022-09-30T09:56:04.081Z,999.90
2022-09-30T09:58:34.687Z,999.90
2022-09-30T10:01:32.288Z,999.90
2022-09-30T10:04:16.381Z,999.90
2022-09-30T10:06:51.398Z,999.90
2022-09-30T10:09:29.160Z,999.90
2022-09-30T10:12:30.554Z,999.90
2022-09-30T10:15:05.205Z,999.90
2022-09-30T10:17:35.930Z,999.90
2022-09-30T10:20:08.219Z,999.90
2022-09-30T10:22:37.451Z,999.90
2022-09-30T10:25:19.171Z,999.90
2022-09-30T10:27:54.536Z,999.90
2022-09-30T10:30:39.871Z,999.90
2022-09-30T10:33:19.237Z,999.90
2022-09-30T10:35:54.183Z,999.90
2022-09-30T10:38:23.244Z,999.90
2022-09-30T10:40:53.371Z,999.90
2022-09-30T10:43:28.063Z,999.90
2022-09-30T10:46:21.324Z,999.90
2022-09-30T10:48:51.912Z,999.90
2022-09-30T10:51:26.106Z,999.90
2022-09-30T10:53:54.910Z,999.90
2022-09-30T10:56:45.764Z,999.90
2022-09-30T10:59:23.669Z,999.90
2022-09-30T11:01:58.615Z,999.90
2022-09-30T11:04:35.044Z,999.90
2022-09-30T11:07:15.661Z,999.90
2022-09-30T11:09:51.179Z,999.90
2022-09-30T11:12:26.840Z,999.90
2022-09-30T11:15:04.291Z,999.90
2022-09-30T11:17:39.607Z,999.90
2022-09-30T11:20:18.362Z,999.90
2022-09-30T11:22:54.554Z,999.90
2022-09-30T11:25:29.001Z,999.90
2022-09-30T11:28:13.020Z,999.90
2022-09-30T11:30:52.909Z,999.90
2022-09-30T11:33:37.078Z,999.90
2022-09-30T11:36:15.874Z,999.90
2022-09-30T11:39:05.975Z,999.90
2022-09-30T11:41:37.897Z,999.90
2022-09-30T11:44:21.249Z,999.90
2022-09-30T11:47:13.260Z,999.90
2022-09-30T11:50:23.835Z,999.90
2022-09-30T11:53:03.194Z,999.90
2022-09-30T11:55:48.721Z,999.90
2022-09-30T11:58:40.352Z,999.90
2022-09-30T12:01:21.796Z,999.90
2022-09-30T12:03:59.009Z,999.90
2022-09-30T12:06:33.029Z,999.90
2022-09-30T12:09:07.143Z,999.90
2022-09-30T12:11:41.042Z,999.90
2022-09-30T12:14:18.068Z,999.90
2022-09-30T12:16:51.270Z,999.90
2022-09-30T12:19:25.732Z,999.90
2022-09-30T12:21:58.962Z,999.90
2022-09-30T12:24:33.098Z,999.90
2022-09-30T12:27:02.018Z,999.90
2022-09-30T12:29:54.071Z,999.90
2022-09-30T12:32:51.417Z,999.90
2022-09-30T12:35:57.848Z,999.90
2022-09-30T12:38:43.108Z,999.90
2022-09-30T12:41:32.159Z,999.90
2022-09-30T12:44:31.963Z,999.90
2022-09-30T12:47:11.137Z,999.90
2022-09-30T12:49:42.608Z,999.90
2022-09-30T12:52:15.505Z,999.90
2022-09-30T12:54:49.468Z,999.90
2022-09-30T12:57:21.859Z,999.90
2022-09-30T12:59:54.977Z,999.90
2022-09-30T13:02:32.169Z,999.90
2022-09-30T13:05:33.745Z,999.90
2022-09-30T13:08:25.891Z,999.90
2022-09-30T13:10:59.287Z,999.90
2022-09-30T13:13:30.746Z,999.90
2022-09-30T13:16:03.444Z,999.90
2022-09-30T13:19:00.757Z,999.90
2022-09-30T13:21:32.101Z,999.90
2022-09-30T13:24:02.214Z,999.90
2022-09-30T13:26:35.308Z,999.90
2022-09-30T13:29:29.615Z,999.90
2022-09-30T13:32:05.143Z,999.90
2022-09-30T13:34:36.455Z,999.90
2022-09-30T13:37:05.883Z,999.90
2022-09-30T13:39:46.701Z,999.90
2022-09-30T13:42:24.486Z,999.90
2022-09-30T13:45:03.722Z,999.90
2022-09-30T13:47:36.210Z,999.90
2022-09-30T13:50:14.591Z,999.90
2022-09-30T13:52:44.234Z,999.90
2022-09-30T13:55:19.721Z,999.90
2022-09-30T13:58:04.372Z,999.90
2022-09-30T14:00:47.481Z,999.90
2022-09-30T14:03:38.635Z,999.90
2022-09-30T14:06:23.025Z,999.90
2022-09-30T14:09:18.891Z,999.90
2022-09-30T14:12:04.593Z,999.90
2022-09-30T14:15:09.769Z,999.90
2022-09-30T14:17:54.882Z,999.90
2022-09-30T14:20:35.628Z,999.90
2022-09-30T14:23:05.188Z,999.90
2022-09-30T14:25:46.187Z,999.90
2022-09-30T14:28:21.367Z,999.90
2022-09-30T14:31:03.599Z,999.90
2022-09-30T14:33:34.349Z,999.90
2022-09-30T14:36:04.374Z,999.90
2022-09-30T14:38:35.889Z,999.90
2022-09-30T14:41:14.118Z,999.90
2022-09-30T14:43:46.628Z,999.90
2022-09-30T14:46:26.481Z,999.90
2022-09-30T14:48:58.921Z,999.90
2022-09-30T14:51:27.499Z,999.90
2022-09-30T14:53:57.580Z,999.90
2022-09-30T14:56:30.534Z,999.90
2022-09-30T14:59:00.982Z,999.90
2022-09-30T15:01:33.885Z,999.90
2022-09-30T15:04:08.398Z,999.90
2022-09-30T15:06:41.102Z,999.90
2022-09-30T15:09:17.828Z,999.90
2022-09-30T15:11:46.831Z,999.90
2022-09-30T15:14:20.386Z,999.90
2022-09-30T15:16:50.603Z,999.90
2022-09-30T15:19:21.489Z,999.90
2022-09-30T15:21:50.877Z,999.90
2022-09-30T15:24:21.302Z,999.90
2022-09-30T15:26:50.728Z,999.90
2022-09-30T15:29:20.356Z,999.90
2022-09-30T15:31:51.554Z,999.90
2022-09-30T15:34:24.011Z,999.90
2022-09-30T15:37:00.325Z,999.90
2022-09-30T15:39:51.460Z,999.90
2022-09-30T15:42:31.902Z,999.90
2022-09-30T15:45:02.262Z,999.90
2022-09-30T15:47:31.020Z,999.90
2022-09-30T15:49:59.399Z,999.90
2022-09-30T15:52:30.484Z,999.90
2022-09-30T15:54:59.205Z,999.90
2022-09-30T15:57:47.987Z,999.90
2022-09-30T16:00:39.537Z,999.90
2022-09-30T16:03:27.847Z,999.90
2022-09-30T16:06:06.940Z,999.90
2022-09-30T16:08:43.969Z,999.90
2022-09-30T16:11:21.805Z,999.90
2022-09-30T16:13:51.490Z,999.90
2022-09-30T16:16:25.532Z,999.90
2022-09-30T16:18:55.902Z,999.90
2022-09-30T16:21:31.437Z,999.90
2022-09-30T16:23:59.740Z,999.90
2022-09-30T16:26:30.762Z,999.90
2022-09-30T16:29:05.846Z,999.90
2022-09-30T16:31:37.938Z,999.90
2022-09-30T16:34:06.231Z,999.90
2022-09-30T16:36:34.763Z,999.90
2022-09-30T16:39:03.260Z,999.90
2022-09-30T16:41:31.415Z,999.90
2022-09-30T16:43:59.485Z,999.90
2022-09-30T16:46:27.626Z,999.90
2022-09-30T16:48:57.362Z,999.90
2022-09-30T16:51:26.999Z,999.90
2022-09-30T16:53:56.344Z,999.90
2022-09-30T16:56:26.509Z,999.90
2022-09-30T16:58:55.926Z,999.90
2022-09-30T17:01:26.321Z,999.90
2022-09-30T17:03:56.576Z,999.90
2022-09-30T17:06:30.329Z,999.90
2022-09-30T17:09:01.055Z,789.43
2022-09-30T17:11:33.124Z,378.90
2022-09-30T17:14:02.730Z,558.83
2022-09-30T17:16:31.910Z,487.83
2022-09-30T17:19:00.509Z,448.40
2022-09-30T17:21:29.972Z,842.33
2022-09-30T17:23:58.845Z,841.03
2022-09-30T17:26:28.279Z,827.70
2022-09-30T17:29:08.785Z,841.47
2022-09-30T17:31:43.191Z,818.77
2022-09-30T17:34:11.512Z,455.17
2022-09-30T17:36:41.733Z,883.03
2022-09-30T17:39:11.373Z,337.10
2022-09-30T17:41:57.054Z,836.13
2022-09-30T17:44:25.774Z,747.47
2022-09-30T17:47:00.442Z,735.87
2022-09-30T17:49:34.048Z,746.17
2022-09-30T17:52:04.131Z,823.60
2022-09-30T17:54:33.092Z,230.97
2022-09-30T17:57:01.742Z,371.80
2022-09-30T17:59:30.034Z,571.23
2022-09-30T18:01:58.302Z,755.07
2022-09-30T18:04:27.194Z,810.70
2022-09-30T18:06:56.175Z,857.10
2022-09-30T18:09:25.906Z,878.43
2022-09-30T18:11:54.477Z,904.43
2022-09-30T18:14:22.977Z,928.43
2022-09-30T18:16:52.397Z,918.43
2022-09-30T18:19:21.086Z,946.60
2022-09-30T18:21:53.302Z,967.60
2022-09-30T18:24:42.531Z,963.20
2022-09-30T18:27:13.044Z,906.60
2022-09-30T18:29:43.033Z,985.17
2022-09-30T18:32:11.738Z,980.23
2022-09-30T18:34:40.314Z,925.27
2022-09-30T18:37:08.878Z,898.03
2022-09-30T18:39:38.113Z,866.50
2022-09-30T18:42:07.743Z,807.93
2022-09-30T18:44:38.117Z,619.07
2022-09-30T18:47:06.954Z,679.97
2022-09-30T18:49:35.180Z,594.60
2022-09-30T18:52:04.602Z,533.37
2022-09-30T18:54:33.695Z,512.83
2022-09-30T18:57:01.933Z,414.60
2022-09-30T18:59:30.147Z,419.03
2022-09-30T19:02:02.896Z,390.00
2022-09-30T19:04:31.148Z,361.47
2022-09-30T19:06:59.445Z,351.00
2022-09-30T19:09:28.281Z,338.77
2022-09-30T19:11:56.961Z,335.87
2022-09-30T19:14:25.152Z,336.40
2022-09-30T19:16:53.609Z,322.07
2022-09-30T19:19:23.849Z,302.23
2022-09-30T19:21:52.881Z,289.27
2022-09-30T19:24:24.105Z,262.87
2022-09-30T19:26:55.583Z,246.93
2022-09-30T19:29:24.949Z,208.93
2022-09-30T19:31:53.236Z,165.73
2022-09-30T19:34:30.659Z,159.10
2022-09-30T19:37:00.405Z,133.40
2022-09-30T19:39:39.858Z,128.57
2022-09-30T19:42:29.733Z,117.70
2022-09-30T19:44:58.544Z,103.67
2022-09-30T19:47:30.986Z,104.03
2022-09-30T19:50:04.164Z,73.13
2022-09-30T19:52:32.556Z,85.87
2022-09-30T19:55:11.771Z,82.67
2022-09-30T19:57:42.041Z,93.27
2022-09-30T20:00:13.814Z,80.87
2022-09-30T20:02:42.198Z,81.70
2022-09-30T20:05:12.509Z,82.33
2022-09-30T20:07:41.335Z,69.07
2022-09-30T20:10:10.202Z,87.40
2022-09-30T20:12:38.819Z,65.70
2022-09-30T20:15:24.958Z,69.97
2022-09-30T20:17:55.389Z,40.70
2022-09-30T20:20:38.380Z,50.47
2022-09-30T20:23:06.717Z,59.80
2022-09-30T20:25:36.253Z,39.37
2022-09-30T20:28:05.443Z,34.87
2022-09-30T20:30:34.954Z,35.27
2022-09-30T20:33:04.370Z,43.43
2022-09-30T20:35:36.894Z,42.23
2022-09-30T20:38:05.223Z,40.27
2022-09-30T20:40:34.440Z,45.03
2022-09-30T20:43:03.531Z,49.73
2022-09-30T20:45:31.999Z,33.17
2022-09-30T20:48:01.179Z,48.27
2022-09-30T20:50:38.476Z,41.70
2022-09-30T20:53:11.086Z,55.17
2022-09-30T20:55:41.655Z,50.23
2022-09-30T20:58:11.063Z,45.40
2022-09-30T21:00:42.190Z,58.37
2022-09-30T21:03:12.917Z,54.10
2022-09-30T21:05:41.355Z,46.80
2022-09-30T21:08:10.866Z,45.50
2022-09-30T21:10:39.088Z,54.90
2022-09-30T21:13:11.288Z,50.07
2022-09-30T21:15:39.933Z,38.10
2022-09-30T21:18:09.752Z,55.33
2022-09-30T21:20:38.286Z,41.97
2022-09-30T21:23:06.437Z,47.67
2022-09-30T21:25:35.883Z,49.13
2022-09-30T21:28:04.535Z,43.53
2022-09-30T21:30:32.785Z,43.33
2022-09-30T21:33:00.911Z,37.50
2022-09-30T21:35:29.121Z,44.10
2022-09-30T21:37:57.328Z,40.53
2022-09-30T21:40:25.552Z,33.80
2022-09-30T21:42:55.146Z,46.70
2022-09-30T21:45:23.375Z,39.07
2022-09-30T21:47:52.024Z,36.83
2022-09-30T21:50:20.212Z,38.10
2022-09-30T21:52:50.230Z,42.20
2022-09-30T21:55:18.932Z,41.27
2022-09-30T21:57:48.485Z,35.67
2022-09-30T22:00:18.320Z,45.67
2022-09-30T22:02:47.014Z,34.40
2022-09-30T22:05:20.581Z,52.57
2022-09-30T22:07:48.900Z,31.10
2022-09-30T22:10:19.285Z,29.00
2022-09-30T22:12:51.092Z,24.23
2022-09-30T22:15:20.654Z,40.10
2022-09-30T22:17:48.849Z,35.23
2022-09-30T22:20:17.140Z,36.07
2022-09-30T22:22:45.994Z,36.43
2022-09-30T22:25:14.178Z,39.87
2022-09-30T22:27:42.998Z,33.93
2022-09-30T22:30:11.796Z,32.60
2022-09-30T22:32:41.406Z,40.83
2022-09-30T22:35:29.304Z,30.27
2022-09-30T22:38:15.967Z,35.63
2022-09-30T22:40:44.156Z,41.00
2022-09-30T22:43:12.451Z,38.40
2022-09-30T22:45:41.689Z,42.43
2022-09-30T22:48:11.223Z,37.63
2022-09-30T22:50:39.548Z,47.10
2022-09-30T22:53:08.794Z,65.67
2022-09-30T22:55:38.024Z,98.93
2022-09-30T22:58:07.223Z,80.23
2022-09-30T23:00:35.639Z,96.20
2022-09-30T23:03:04.064Z,100.17
2022-09-30T23:05:36.501Z,122.17
2022-09-30T23:08:04.978Z,137.07
2022-09-30T23:10:33.177Z,140.63
2022-09-30T23:13:01.400Z,159.10
2022-09-30T23:15:29.572Z,136.33
2022-09-30T23:17:57.667Z,143.33
2022-09-30T23:20:25.788Z,146.90
2022-09-30T23:22:55.342Z,152.70
2022-09-30T23:25:23.540Z,148.93
2022-09-30T23:27:53.350Z,186.37
2022-09-30T23:30:21.531Z,172.10
2022-09-30T23:32:50.581Z,170.50
2022-09-30T23:35:18.958Z,127.40
2022-09-30T23:37:50.583Z,111.30
2022-09-30T23:40:20.124Z,99.43
2022-09-30T23:42:50.373Z,73.73
2022-09-30T23:45:18.461Z,66.23
2022-09-30T23:47:48.979Z,69.43
2022-09-30T23:50:17.331Z,57.20
2022-09-30T23:52:45.421Z,52.87
2022-09-30T23:55:13.554Z,36.47
2022-09-30T23:57:46.627Z,35.40
